THY9NK LTFM-LTFH
Flight info
| Callsign | THY9NK |
|---|---|
| Flight time | 1h 12m |
| Altitude | 37000 |
| Route | EKAWE1E/36 EKAWE UT641 ABSAX UN743 GAKSU UT310 SIN/N0421F270 W86 BAFRA |
| Aircraft | A321/M-SDE3FGHIRWY/LB1 |
Departure
| Time | 2026-05-04 20:47 |
|---|---|
| Airport | İstanbul Airport (LTFM) |
Arrival
| Time | 2026-05-04 22:00 |
|---|---|
| Airport | Samsun-Çarşamba Airport (LTFH) |
| Time | Latitude | Longitude | Altitude | Speed | Heading |
|---|---|---|---|---|---|
| 2026-05-04 20:22 | 41.25976 | 28.74953 | 331 ft | 0 kts | 251° |
| 2026-05-04 20:37 | 41.25976 | 28.74954 | 334 ft | 2 kts | 251° |
| 2026-05-04 20:38 | 41.25983 | 28.74986 | 330 ft | 4 kts | 259° |
| 2026-05-04 20:38 | 41.25986 | 28.75022 | 331 ft | 4 kts | 270° |
| 2026-05-04 20:38 | 41.25984 | 28.75057 | 331 ft | 4 kts | 286° |
| 2026-05-04 20:38 | 41.25973 | 28.75087 | 330 ft | 4 kts | 319° |
| 2026-05-04 20:39 | 41.25963 | 28.75097 | 330 ft | 0 kts | 341° |
| 2026-05-04 20:43 | 41.25964 | 28.75097 | 330 ft | 1 kts | 341° |
| 2026-05-04 20:43 | 41.25975 | 28.75092 | 330 ft | 3 kts | 341° |
| 2026-05-04 20:43 | 41.26000 | 28.75080 | 331 ft | 5 kts | 341° |
| 2026-05-04 20:43 | 41.26038 | 28.75063 | 333 ft | 7 kts | 340° |
| 2026-05-04 20:44 | 41.26087 | 28.75039 | 333 ft | 8 kts | 340° |
| 2026-05-04 20:44 | 41.26147 | 28.75012 | 332 ft | 10 kts | 341° |
| 2026-05-04 20:44 | 41.26218 | 28.75002 | 332 ft | 11 kts | 21° |
| 2026-05-04 20:44 | 41.26243 | 28.75096 | 334 ft | 12 kts | 90° |
| 2026-05-04 20:45 | 41.26242 | 28.75214 | 334 ft | 14 kts | 90° |
| 2026-05-04 20:45 | 41.26245 | 28.75346 | 334 ft | 15 kts | 86° |
| 2026-05-04 20:45 | 41.26248 | 28.75459 | 334 ft | 8 kts | 89° |
| 2026-05-04 20:45 | 41.26249 | 28.75488 | 334 ft | 0 kts | 89° |
| 2026-05-04 20:46 | 41.26249 | 28.75499 | 334 ft | 2 kts | 89° |
| 2026-05-04 20:46 | 41.26249 | 28.75537 | 334 ft | 8 kts | 89° |
| 2026-05-04 20:46 | 41.26258 | 28.75641 | 330 ft | 14 kts | 59° |
| 2026-05-04 20:46 | 41.26334 | 28.75671 | 333 ft | 11 kts | 1° |
| 2026-05-04 20:47 | 41.26535 | 28.75672 | 332 ft | 62 kts | 359° |
| 2026-05-04 20:47 | 41.27217 | 28.75652 | 331 ft | 131 kts | 359° |
| 2026-05-04 20:47 | 41.28266 | 28.75622 | 663 ft | 152 kts | 357° |
| 2026-05-04 20:47 | 41.29312 | 28.75607 | 1438 ft | 152 kts | 359° |
| 2026-05-04 20:48 | 41.30372 | 28.76146 | 1748 ft | 182 kts | 37° |
| 2026-05-04 20:48 | 41.31380 | 28.77334 | 1994 ft | 204 kts | 34° |
| 2026-05-04 20:48 | 41.32639 | 28.78422 | 2224 ft | 228 kts | 27° |
| 2026-05-04 20:48 | 41.34069 | 28.79489 | 2859 ft | 239 kts | 26° |
| 2026-05-04 20:49 | 41.35540 | 28.80553 | 3782 ft | 241 kts | 26° |
| 2026-05-04 20:49 | 41.37006 | 28.81618 | 4769 ft | 240 kts | 27° |
| 2026-05-04 20:49 | 41.38296 | 28.83015 | 5775 ft | 239 kts | 50° |
| 2026-05-04 20:49 | 41.39012 | 28.84935 | 7118 ft | 226 kts | 62° |
| 2026-05-04 20:50 | 41.39575 | 28.86864 | 8126 ft | 222 kts | 62° |
| 2026-05-04 20:50 | 41.40140 | 28.88780 | 8977 ft | 223 kts | 62° |
| 2026-05-04 20:50 | 41.40710 | 28.90708 | 9780 ft | 225 kts | 62° |
| 2026-05-04 20:50 | 41.41284 | 28.92658 | 10520 ft | 227 kts | 62° |
| 2026-05-04 20:51 | 41.41863 | 28.94628 | 11216 ft | 230 kts | 62° |
| 2026-05-04 20:51 | 41.42451 | 28.96633 | 11905 ft | 234 kts | 62° |
| 2026-05-04 20:51 | 41.43038 | 28.98641 | 12584 ft | 237 kts | 63° |
| 2026-05-04 20:51 | 41.43647 | 29.00729 | 13291 ft | 240 kts | 63° |
| 2026-05-04 20:52 | 41.44257 | 29.02819 | 13961 ft | 244 kts | 63° |
| 2026-05-04 20:52 | 41.44874 | 29.04937 | 14584 ft | 246 kts | 63° |
| 2026-05-04 20:52 | 41.45485 | 29.07042 | 15211 ft | 248 kts | 63° |
| 2026-05-04 20:52 | 41.46110 | 29.09192 | 15834 ft | 249 kts | 63° |
| 2026-05-04 20:53 | 41.46736 | 29.11351 | 16468 ft | 251 kts | 63° |
| 2026-05-04 20:53 | 41.47369 | 29.13530 | 17113 ft | 253 kts | 63° |
| 2026-05-04 20:53 | 41.48016 | 29.15753 | 17767 ft | 255 kts | 63° |
| 2026-05-04 20:53 | 41.48648 | 29.17938 | 18364 ft | 256 kts | 63° |
| 2026-05-04 20:54 | 41.49289 | 29.20159 | 18902 ft | 258 kts | 63° |
| 2026-05-04 20:54 | 41.49936 | 29.22405 | 19419 ft | 260 kts | 63° |
| 2026-05-04 20:54 | 41.50587 | 29.24667 | 19944 ft | 262 kts | 63° |
| 2026-05-04 20:54 | 41.51254 | 29.26975 | 20227 ft | 275 kts | 63° |
| 2026-05-04 20:55 | 41.51970 | 29.29430 | 20358 ft | 292 kts | 63° |
| 2026-05-04 20:55 | 41.52726 | 29.32033 | 20491 ft | 309 kts | 63° |
| 2026-05-04 20:55 | 41.53523 | 29.34787 | 20624 ft | 326 kts | 64° |
| 2026-05-04 20:55 | 41.54360 | 29.37684 | 20750 ft | 343 kts | 64° |
| 2026-05-04 20:56 | 41.55234 | 29.40723 | 20878 ft | 359 kts | 64° |
| 2026-05-04 20:56 | 41.56145 | 29.43900 | 21001 ft | 375 kts | 64° |
| 2026-05-04 20:56 | 41.57089 | 29.47210 | 21202 ft | 386 kts | 65° |
| 2026-05-04 20:56 | 41.58047 | 29.50591 | 21628 ft | 392 kts | 65° |
| 2026-05-04 20:57 | 41.59011 | 29.54001 | 22142 ft | 394 kts | 65° |
| 2026-05-04 20:57 | 41.59987 | 29.57451 | 22670 ft | 397 kts | 64° |
| 2026-05-04 20:57 | 41.60963 | 29.60903 | 23184 ft | 399 kts | 64° |
| 2026-05-04 20:57 | 41.61950 | 29.64382 | 23668 ft | 402 kts | 64° |
| 2026-05-04 20:58 | 41.62945 | 29.67884 | 24116 ft | 404 kts | 64° |
| 2026-05-04 20:58 | 41.63949 | 29.71419 | 24518 ft | 407 kts | 64° |
| 2026-05-04 20:58 | 41.64955 | 29.74962 | 24928 ft | 410 kts | 64° |
| 2026-05-04 20:58 | 41.65966 | 29.78536 | 25332 ft | 412 kts | 64° |
| 2026-05-04 20:59 | 41.66981 | 29.82138 | 25728 ft | 415 kts | 65° |
| 2026-05-04 20:59 | 41.67995 | 29.85749 | 26117 ft | 417 kts | 65° |
| 2026-05-04 20:59 | 41.69020 | 29.89395 | 26505 ft | 420 kts | 65° |
| 2026-05-04 20:59 | 41.70053 | 29.93064 | 26892 ft | 422 kts | 65° |
| 2026-05-04 21:00 | 41.71092 | 29.96749 | 27292 ft | 425 kts | 65° |
| 2026-05-04 21:00 | 41.72120 | 30.00404 | 27672 ft | 427 kts | 65° |
| 2026-05-04 21:00 | 41.73161 | 30.04130 | 28121 ft | 427 kts | 65° |
| 2026-05-04 21:00 | 41.74198 | 30.07853 | 28679 ft | 425 kts | 65° |
| 2026-05-04 21:01 | 41.75226 | 30.11555 | 29231 ft | 424 kts | 65° |
| 2026-05-04 21:01 | 41.76249 | 30.15244 | 29796 ft | 423 kts | 65° |
| 2026-05-04 21:01 | 41.77273 | 30.18938 | 30310 ft | 421 kts | 65° |
| 2026-05-04 21:01 | 41.78291 | 30.22612 | 30770 ft | 420 kts | 65° |
| 2026-05-04 21:02 | 41.79306 | 30.26271 | 31223 ft | 418 kts | 65° |
| 2026-05-04 21:02 | 41.80319 | 30.29918 | 31672 ft | 417 kts | 65° |
| 2026-05-04 21:02 | 41.81330 | 30.33563 | 32107 ft | 416 kts | 65° |
| 2026-05-04 21:02 | 41.82335 | 30.37194 | 32559 ft | 416 kts | 65° |
| 2026-05-04 21:03 | 41.83337 | 30.40826 | 33046 ft | 414 kts | 65° |
| 2026-05-04 21:03 | 41.84333 | 30.44452 | 33522 ft | 414 kts | 65° |
| 2026-05-04 21:03 | 41.85323 | 30.48064 | 33947 ft | 413 kts | 65° |
| 2026-05-04 21:03 | 41.86316 | 30.51676 | 34279 ft | 413 kts | 65° |
| 2026-05-04 21:04 | 41.87312 | 30.55293 | 34569 ft | 414 kts | 65° |
| 2026-05-04 21:04 | 41.88308 | 30.58926 | 34829 ft | 416 kts | 66° |
| 2026-05-04 21:04 | 41.89305 | 30.62571 | 35080 ft | 417 kts | 66° |
| 2026-05-04 21:04 | 41.90304 | 30.66227 | 35332 ft | 418 kts | 66° |
| 2026-05-04 21:05 | 41.91303 | 30.69898 | 35594 ft | 419 kts | 66° |
| 2026-05-04 21:05 | 41.92305 | 30.73582 | 35843 ft | 421 kts | 66° |
| 2026-05-04 21:05 | 41.93309 | 30.77276 | 36091 ft | 422 kts | 66° |
| 2026-05-04 21:05 | 41.94318 | 30.80987 | 36327 ft | 423 kts | 66° |
| 2026-05-04 21:06 | 41.95328 | 30.84712 | 36555 ft | 425 kts | 66° |
| 2026-05-04 21:06 | 41.96334 | 30.88441 | 36772 ft | 426 kts | 67° |
| 2026-05-04 21:06 | 41.97343 | 30.92187 | 36941 ft | 428 kts | 67° |
| 2026-05-04 21:06 | 41.98359 | 30.95959 | 36972 ft | 430 kts | 67° |
| 2026-05-04 21:07 | 42.00379 | 31.03526 | 36964 ft | 431 kts | 68° |
| 2026-05-04 21:07 | 42.02127 | 31.11264 | 36958 ft | 433 kts | 71° |
| 2026-05-04 21:08 | 42.03695 | 31.19066 | 36953 ft | 432 kts | 72° |
| 2026-05-04 21:08 | 42.05285 | 31.26864 | 36952 ft | 432 kts | 71° |
| 2026-05-04 21:09 | 42.06932 | 31.34641 | 36958 ft | 432 kts | 71° |
| 2026-05-04 21:09 | 42.08586 | 31.42416 | 36960 ft | 433 kts | 71° |
| 2026-05-04 21:10 | 42.10227 | 31.50225 | 36963 ft | 433 kts | 71° |
| 2026-05-04 21:10 | 42.11850 | 31.58014 | 36957 ft | 432 kts | 71° |
| 2026-05-04 21:11 | 42.13472 | 31.65812 | 36953 ft | 432 kts | 71° |
| 2026-05-04 21:11 | 42.15083 | 31.73571 | 36953 ft | 433 kts | 71° |
| 2026-05-04 21:12 | 42.16714 | 31.81429 | 36953 ft | 433 kts | 71° |
| 2026-05-04 21:12 | 42.18318 | 31.89210 | 36950 ft | 433 kts | 72° |
| 2026-05-04 21:13 | 42.19921 | 31.97040 | 36951 ft | 433 kts | 72° |
| 2026-05-04 21:13 | 42.21265 | 32.03605 | 36953 ft | 434 kts | 72° |
| 2026-05-04 21:14 | 42.23125 | 32.12726 | 36950 ft | 434 kts | 72° |
| 2026-05-04 21:14 | 42.24719 | 32.20587 | 36956 ft | 434 kts | 72° |
| 2026-05-04 21:15 | 42.26138 | 32.27135 | 36952 ft | 434 kts | 70° |
| 2026-05-04 21:15 | 42.27967 | 32.34892 | 36952 ft | 434 kts | 70° |
| 2026-05-04 21:16 | 42.29780 | 32.42614 | 36952 ft | 434 kts | 70° |
| 2026-05-04 21:16 | 42.31569 | 32.50409 | 36958 ft | 435 kts | 71° |
| 2026-05-04 21:17 | 42.32906 | 32.58378 | 36954 ft | 438 kts | 84° |
| 2026-05-04 21:17 | 42.32439 | 32.66607 | 36956 ft | 442 kts | 96° |
| 2026-05-04 21:18 | 42.31502 | 32.74828 | 36958 ft | 443 kts | 96° |
| 2026-05-04 21:18 | 42.30569 | 32.83062 | 36960 ft | 443 kts | 96° |
| 2026-05-04 21:19 | 42.29632 | 32.91299 | 36961 ft | 444 kts | 96° |
| 2026-05-04 21:19 | 42.28682 | 32.99536 | 36964 ft | 444 kts | 96° |
| 2026-05-04 21:20 | 42.27726 | 33.07777 | 36960 ft | 444 kts | 96° |
| 2026-05-04 21:20 | 42.26764 | 33.16016 | 36962 ft | 444 kts | 96° |
| 2026-05-04 21:21 | 42.25802 | 33.24251 | 36966 ft | 444 kts | 96° |
| 2026-05-04 21:21 | 42.24832 | 33.32489 | 36966 ft | 445 kts | 97° |
| 2026-05-04 21:22 | 42.23852 | 33.40720 | 36967 ft | 445 kts | 97° |
| 2026-05-04 21:22 | 42.22863 | 33.48962 | 36962 ft | 445 kts | 97° |
| 2026-05-04 21:23 | 42.21870 | 33.57207 | 36957 ft | 446 kts | 97° |
| 2026-05-04 21:23 | 42.20864 | 33.65547 | 36943 ft | 454 kts | 97° |
| 2026-05-04 21:24 | 42.19838 | 33.73983 | 36945 ft | 457 kts | 97° |
| 2026-05-04 21:24 | 42.18795 | 33.82428 | 36939 ft | 457 kts | 97° |
| 2026-05-04 21:25 | 42.17749 | 33.90898 | 36943 ft | 458 kts | 97° |
| 2026-05-04 21:25 | 42.16698 | 33.99368 | 36946 ft | 458 kts | 98° |
| 2026-05-04 21:26 | 42.16174 | 34.03553 | 36938 ft | 447 kts | 98° |
| 2026-05-04 21:26 | 42.15661 | 34.07629 | 36939 ft | 434 kts | 98° |
| 2026-05-04 21:26 | 42.15164 | 34.11579 | 36939 ft | 423 kts | 98° |
| 2026-05-04 21:26 | 42.14682 | 34.15419 | 36944 ft | 420 kts | 98° |
| 2026-05-04 21:27 | 42.13702 | 34.23229 | 36942 ft | 420 kts | 98° |
| 2026-05-04 21:27 | 42.12727 | 34.30929 | 36945 ft | 420 kts | 98° |
| 2026-05-04 21:28 | 42.11730 | 34.38674 | 36944 ft | 420 kts | 98° |
| 2026-05-04 21:28 | 42.10724 | 34.46435 | 36950 ft | 421 kts | 99° |
| 2026-05-04 21:29 | 42.09664 | 34.54197 | 36953 ft | 422 kts | 99° |
| 2026-05-04 21:29 | 42.09114 | 34.58108 | 36631 ft | 432 kts | 99° |
| 2026-05-04 21:29 | 42.08546 | 34.62131 | 36064 ft | 442 kts | 99° |
| 2026-05-04 21:30 | 42.07973 | 34.66213 | 35482 ft | 446 kts | 99° |
| 2026-05-04 21:30 | 42.07397 | 34.70324 | 34843 ft | 447 kts | 99° |
| 2026-05-04 21:30 | 42.06820 | 34.74442 | 34167 ft | 449 kts | 98° |
| 2026-05-04 21:30 | 42.06236 | 34.78597 | 33260 ft | 454 kts | 99° |
| 2026-05-04 21:31 | 42.05062 | 34.86934 | 31641 ft | 455 kts | 98° |
| 2026-05-04 21:31 | 42.04487 | 34.91116 | 30772 ft | 455 kts | 98° |
| 2026-05-04 21:31 | 42.03927 | 34.95291 | 30223 ft | 450 kts | 99° |
| 2026-05-04 21:32 | 42.03107 | 34.99322 | 30010 ft | 447 kts | 109° |
| 2026-05-04 21:32 | 42.01715 | 35.03059 | 29920 ft | 449 kts | 120° |
| 2026-05-04 21:32 | 41.99822 | 35.06415 | 29228 ft | 455 kts | 130° |
| 2026-05-04 21:32 | 41.97395 | 35.09217 | 28060 ft | 464 kts | 144° |
| 2026-05-04 21:33 | 41.94534 | 35.11271 | 26896 ft | 471 kts | 156° |
| 2026-05-04 21:33 | 41.91424 | 35.12736 | 25758 ft | 474 kts | 160° |
| 2026-05-04 21:33 | 41.88322 | 35.14246 | 24796 ft | 472 kts | 155° |
| 2026-05-04 21:33 | 41.85469 | 35.16362 | 23946 ft | 467 kts | 145° |
| 2026-05-04 21:34 | 41.83028 | 35.19108 | 23122 ft | 463 kts | 134° |
| 2026-05-04 21:34 | 41.81000 | 35.22422 | 22264 ft | 458 kts | 124° |
| 2026-05-04 21:34 | 41.79402 | 35.26162 | 21384 ft | 453 kts | 118° |
| 2026-05-04 21:34 | 41.77948 | 35.29813 | 20518 ft | 449 kts | 118° |
| 2026-05-04 21:35 | 41.76482 | 35.33472 | 19713 ft | 444 kts | 118° |
| 2026-05-04 21:35 | 41.75027 | 35.37096 | 18935 ft | 439 kts | 118° |
| 2026-05-04 21:35 | 41.73586 | 35.40679 | 18157 ft | 435 kts | 118° |
| 2026-05-04 21:35 | 41.72154 | 35.44227 | 17283 ft | 430 kts | 118° |
| 2026-05-04 21:36 | 41.70737 | 35.47729 | 16461 ft | 425 kts | 118° |
| 2026-05-04 21:36 | 41.69335 | 35.51192 | 15660 ft | 421 kts | 118° |
| 2026-05-04 21:36 | 41.67952 | 35.54608 | 14901 ft | 416 kts | 118° |
| 2026-05-04 21:36 | 41.66581 | 35.57996 | 14187 ft | 412 kts | 118° |
| 2026-05-04 21:37 | 41.65229 | 35.61343 | 13488 ft | 407 kts | 118° |
| 2026-05-04 21:37 | 41.63894 | 35.64654 | 12779 ft | 403 kts | 118° |
| 2026-05-04 21:37 | 41.62564 | 35.67945 | 12124 ft | 399 kts | 118° |
| 2026-05-04 21:37 | 41.61267 | 35.71150 | 11839 ft | 385 kts | 118° |
| 2026-05-04 21:38 | 41.60016 | 35.74228 | 11718 ft | 367 kts | 118° |
| 2026-05-04 21:38 | 41.58823 | 35.77152 | 11588 ft | 350 kts | 118° |
| 2026-05-04 21:38 | 41.57687 | 35.79939 | 11458 ft | 334 kts | 119° |
| 2026-05-04 21:38 | 41.56598 | 35.82608 | 11345 ft | 320 kts | 119° |
| 2026-05-04 21:39 | 41.55558 | 35.85156 | 11203 ft | 307 kts | 119° |
| 2026-05-04 21:39 | 41.54555 | 35.87607 | 11086 ft | 295 kts | 119° |
| 2026-05-04 21:39 | 41.53585 | 35.89976 | 10834 ft | 288 kts | 119° |
| 2026-05-04 21:39 | 41.52626 | 35.92322 | 10487 ft | 286 kts | 119° |
| 2026-05-04 21:40 | 41.51677 | 35.94640 | 10135 ft | 285 kts | 119° |
| 2026-05-04 21:40 | 41.50785 | 35.96993 | 9785 ft | 283 kts | 111° |
| 2026-05-04 21:40 | 41.50191 | 35.99496 | 9397 ft | 282 kts | 108° |
| 2026-05-04 21:40 | 41.49617 | 36.01991 | 9029 ft | 280 kts | 108° |
| 2026-05-04 21:41 | 41.49046 | 36.04464 | 8687 ft | 278 kts | 108° |
| 2026-05-04 21:41 | 41.48478 | 36.06911 | 8267 ft | 274 kts | 108° |
| 2026-05-04 21:41 | 41.47912 | 36.09332 | 7707 ft | 272 kts | 108° |
| 2026-05-04 21:41 | 41.47353 | 36.11712 | 7085 ft | 267 kts | 107° |
| 2026-05-04 21:42 | 41.46802 | 36.14054 | 6401 ft | 263 kts | 107° |
| 2026-05-04 21:42 | 41.46268 | 36.16335 | 5660 ft | 260 kts | 107° |
| 2026-05-04 21:42 | 41.45725 | 36.18660 | 4977 ft | 256 kts | 107° |
| 2026-05-04 21:42 | 41.45187 | 36.20955 | 4510 ft | 262 kts | 107° |
| 2026-05-04 21:43 | 41.44660 | 36.23198 | 4383 ft | 252 kts | 107° |
| 2026-05-04 21:43 | 41.44138 | 36.25406 | 4251 ft | 242 kts | 107° |
| 2026-05-04 21:43 | 41.43650 | 36.27476 | 4114 ft | 232 kts | 107° |
| 2026-05-04 21:43 | 41.43175 | 36.29491 | 3960 ft | 225 kts | 107° |
| 2026-05-04 21:44 | 41.42709 | 36.31476 | 3735 ft | 224 kts | 106° |
| 2026-05-04 21:44 | 41.42221 | 36.33443 | 3431 ft | 224 kts | 114° |
| 2026-05-04 21:44 | 41.41283 | 36.35037 | 3232 ft | 215 kts | 136° |
| 2026-05-04 21:44 | 41.40219 | 36.36391 | 3085 ft | 210 kts | 136° |
| 2026-05-04 21:45 | 41.39124 | 36.37678 | 2997 ft | 209 kts | 136° |
| 2026-05-04 21:45 | 41.38083 | 36.39031 | 3000 ft | 209 kts | 133° |
| 2026-05-04 21:45 | 41.37075 | 36.40426 | 2993 ft | 209 kts | 133° |
| 2026-05-04 21:45 | 41.36078 | 36.41824 | 2836 ft | 203 kts | 132° |
| 2026-05-04 21:46 | 41.35138 | 36.43143 | 2575 ft | 190 kts | 133° |
| 2026-05-04 21:46 | 41.34266 | 36.44366 | 2323 ft | 175 kts | 132° |
| 2026-05-04 21:46 | 41.33455 | 36.45503 | 2122 ft | 163 kts | 133° |
| 2026-05-04 21:46 | 41.32707 | 36.46552 | 1894 ft | 152 kts | 133° |
| 2026-05-04 21:47 | 41.31987 | 36.47560 | 1688 ft | 149 kts | 133° |
| 2026-05-04 21:47 | 41.31280 | 36.48551 | 1478 ft | 147 kts | 133° |
| 2026-05-04 21:47 | 41.30577 | 36.49536 | 1276 ft | 147 kts | 133° |
| 2026-05-04 21:47 | 41.29877 | 36.50516 | 1069 ft | 146 kts | 133° |
| 2026-05-04 21:48 | 41.29181 | 36.51489 | 856 ft | 145 kts | 133° |
| 2026-05-04 21:48 | 41.28490 | 36.52457 | 666 ft | 144 kts | 134° |
| 2026-05-04 21:48 | 41.27807 | 36.53416 | 469 ft | 142 kts | 134° |
| 2026-05-04 21:48 | 41.27127 | 36.54363 | 278 ft | 141 kts | 134° |
| 2026-05-04 21:49 | 41.26452 | 36.55305 | 98 ft | 141 kts | 133° |
| 2026-05-04 21:49 | 41.25786 | 36.56243 | 29 ft | 148 kts | 133° |
| 2026-05-04 21:49 | 41.25062 | 36.57273 | 769 ft | 150 kts | 134° |
| 2026-05-04 21:49 | 41.24331 | 36.58277 | 1500 ft | 153 kts | 133° |
| 2026-05-04 21:50 | 41.23543 | 36.59350 | 1685 ft | 172 kts | 132° |
| 2026-05-04 21:50 | 41.23041 | 36.60827 | 1813 ft | 186 kts | 94° |
| 2026-05-04 21:50 | 41.23419 | 36.62548 | 2002 ft | 208 kts | 52° |
| 2026-05-04 21:50 | 41.24545 | 36.63673 | 2737 ft | 204 kts | 19° |
| 2026-05-04 21:51 | 41.25936 | 36.63772 | 3470 ft | 207 kts | 351° |
| 2026-05-04 21:51 | 41.27334 | 36.63142 | 3919 ft | 212 kts | 339° |
| 2026-05-04 21:51 | 41.28686 | 36.62343 | 3997 ft | 212 kts | 337° |
| 2026-05-04 21:51 | 41.30011 | 36.61480 | 4002 ft | 213 kts | 331° |
| 2026-05-04 21:52 | 41.31253 | 36.60414 | 4006 ft | 213 kts | 327° |
| 2026-05-04 21:52 | 41.32478 | 36.59303 | 4007 ft | 213 kts | 327° |
| 2026-05-04 21:52 | 41.33696 | 36.58191 | 4007 ft | 213 kts | 327° |
| 2026-05-04 21:52 | 41.34856 | 36.56957 | 4008 ft | 214 kts | 319° |
| 2026-05-04 21:53 | 41.35916 | 36.55613 | 4010 ft | 214 kts | 317° |
| 2026-05-04 21:53 | 41.36995 | 36.54216 | 4011 ft | 214 kts | 317° |
| 2026-05-04 21:53 | 41.38046 | 36.52852 | 4007 ft | 213 kts | 317° |
| 2026-05-04 21:53 | 41.39106 | 36.51474 | 4008 ft | 213 kts | 317° |
| 2026-05-04 21:54 | 41.40145 | 36.50123 | 3883 ft | 201 kts | 317° |
| 2026-05-04 21:54 | 41.41113 | 36.48862 | 3610 ft | 191 kts | 317° |
| 2026-05-04 21:54 | 41.42009 | 36.47607 | 3340 ft | 184 kts | 306° |
| 2026-05-04 21:54 | 41.42405 | 36.46041 | 3094 ft | 178 kts | 272° |
| 2026-05-04 21:55 | 41.42110 | 36.44509 | 3003 ft | 168 kts | 239° |
| 2026-05-04 21:55 | 41.41280 | 36.43455 | 3004 ft | 166 kts | 206° |
| 2026-05-04 21:55 | 41.40213 | 36.42888 | 3007 ft | 165 kts | 201° |
| 2026-05-04 21:55 | 41.39146 | 36.42343 | 3011 ft | 164 kts | 200° |
| 2026-05-04 21:56 | 41.38074 | 36.41814 | 2986 ft | 165 kts | 195° |
| 2026-05-04 21:56 | 41.36942 | 36.41718 | 2875 ft | 163 kts | 170° |
| 2026-05-04 21:56 | 41.35888 | 36.42240 | 2731 ft | 162 kts | 145° |
| 2026-05-04 21:56 | 41.35065 | 36.43244 | 2552 ft | 160 kts | 132° |
| 2026-05-04 21:57 | 41.34299 | 36.44319 | 2343 ft | 160 kts | 132° |
| 2026-05-04 21:57 | 41.33534 | 36.45393 | 2124 ft | 160 kts | 132° |
| 2026-05-04 21:57 | 41.32777 | 36.46453 | 1942 ft | 153 kts | 133° |
| 2026-05-04 21:57 | 41.32053 | 36.47468 | 1718 ft | 149 kts | 133° |
| 2026-05-04 21:58 | 41.31346 | 36.48459 | 1497 ft | 147 kts | 133° |
| 2026-05-04 21:58 | 41.30647 | 36.49438 | 1295 ft | 146 kts | 133° |
| 2026-05-04 21:58 | 41.29948 | 36.50416 | 1086 ft | 145 kts | 133° |
| 2026-05-04 21:58 | 41.29253 | 36.51389 | 884 ft | 145 kts | 133° |
| 2026-05-04 21:59 | 41.28564 | 36.52352 | 683 ft | 143 kts | 133° |
| 2026-05-04 21:59 | 41.27889 | 36.53296 | 489 ft | 142 kts | 133° |
| 2026-05-04 21:59 | 41.27211 | 36.54245 | 305 ft | 142 kts | 132° |
| 2026-05-04 21:59 | 41.26531 | 36.55196 | 116 ft | 142 kts | 132° |
| 2026-05-04 22:00 | 41.25883 | 36.56119 | 25 ft | 119 kts | 133° |
| 2026-05-04 22:00 | 41.25429 | 36.56753 | 23 ft | 70 kts | 134° |
| 2026-05-04 22:00 | 41.25214 | 36.57058 | 23 ft | 19 kts | 133° |
| 2026-05-04 22:00 | 41.25172 | 36.57091 | 24 ft | 2 kts | 242° |
| 2026-05-04 22:01 | 41.25180 | 36.57077 | 24 ft | 2 kts | 308° |
| 2026-05-04 22:01 | 41.25199 | 36.57051 | 23 ft | 7 kts | 315° |
| 2026-05-04 22:01 | 41.25248 | 36.56986 | 23 ft | 13 kts | 315° |
| 2026-05-04 22:01 | 41.25326 | 36.56881 | 25 ft | 19 kts | 314° |
| 2026-05-04 22:02 | 41.25434 | 36.56734 | 24 ft | 25 kts | 314° |
| 2026-05-04 22:02 | 41.25567 | 36.56550 | 24 ft | 30 kts | 313° |
| 2026-05-04 22:02 | 41.25722 | 36.56333 | 25 ft | 30 kts | 313° |
| 2026-05-04 22:02 | 41.25865 | 36.56130 | 24 ft | 30 kts | 313° |
| 2026-05-04 22:03 | 41.25989 | 36.55952 | 23 ft | 20 kts | 313° |
| 2026-05-04 22:03 | 41.26018 | 36.55846 | 24 ft | 10 kts | 237° |
| 2026-05-04 22:03 | 41.25971 | 36.55785 | 26 ft | 9 kts | 223° |
| 2026-05-04 22:03 | 41.25923 | 36.55726 | 25 ft | 10 kts | 223° |
| 2026-05-04 22:04 | 41.25882 | 36.55677 | 27 ft | 6 kts | 222° |
| 2026-05-04 22:04 | 41.25872 | 36.55657 | 25 ft | 1 kts | 251° |
| 2026-05-04 22:04 | 41.25872 | 36.55648 | 25 ft | 1 kts | 261° |
| 2026-05-04 22:04 | 41.25875 | 36.55636 | 25 ft | 3 kts | 288° |
| 2026-05-04 22:05 | 41.25895 | 36.55603 | 27 ft | 6 kts | 313° |
| 2026-05-04 22:05 | 41.25902 | 36.55571 | 26 ft | 1 kts | 257° |
| 2026-05-04 22:05 | 41.25887 | 36.55545 | 28 ft | 3 kts | 224° |
| 2026-05-04 22:05 | 41.25872 | 36.55527 | 28 ft | 0 kts | 223° |